Time;durP1;ratioP1;P1;durP2;ratioP2;P2;SDS_P1;SDS_P2;PMS_P1;PMS_P2;Temp;Humidity;BMP_temperature;BMP_pressure;BME280_temperature;BME280_humidity;BME280_pressure;Samples;Min_cycle;Max_cycle;Signal;HPM_P1;HPM_P2
2023/10/21 00:02:37;;;;;;;6.20;3.22;;;;;11.30;93985.00;;;;8368841;28;20240;-66
2023/10/21 00:06:40;;;;;;;100.10;5.63;;;;;11.30;93987.00;;;;8367042;28;20240;-66
2023/10/21 00:10:43;;;;;;;10.25;3.40;;;;;11.20;93988.00;;;;8367303;28;20298;-65
2023/10/21 00:14:48;;;;;;;3.90;3.05;;;;;11.10;93998.00;;;;8375084;28;20474;-65
2023/10/21 00:18:51;;;;;;;7.57;3.10;;;;;11.00;94004.00;;;;8373018;28;20192;-66
2023/10/21 00:22:54;;;;;;;6.47;2.80;;;;;10.90;94010.00;;;;8366998;28;20207;-65
2023/10/21 00:26:58;;;;;;;8.75;2.85;;;;;11.00;94021.00;;;;8370142;28;20247;-66
2023/10/21 00:31:04;;;;;;;6.40;3.00;;;;;10.90;94023.00;;;;8372971;28;20223;-65
2023/10/21 00:35:08;;;;;;;5.45;3.10;;;;;10.80;94023.00;;;;8369638;28;20200;-65
2023/10/21 00:39:11;;;;;;;2.67;2.47;;;;;10.80;94041.00;;;;8367188;28;20204;-65
2023/10/21 00:43:32;;;;;;;7.45;3.03;;;;;10.70;94043.00;;;;8380412;28;20195;-66
2023/10/21 00:47:36;;;;;;;4.38;2.83;;;;;10.80;94040.00;;;;8372913;28;20224;-65
2023/10/21 00:51:42;;;;;;;8.27;3.00;;;;;10.80;94050.00;;;;8370182;28;20872;-66
2023/10/21 00:55:45;;;;;;;5.63;3.33;;;;;10.80;94062.00;;;;8368528;28;20290;-65
2023/10/21 00:59:49;;;;;;;4.68;3.15;;;;;10.70;94079.00;;;;8363671;28;20209;-66
2023/10/21 01:03:53;;;;;;;3.67;3.08;;;;;10.70;94082.00;;;;8365151;28;20273;-66
2023/10/21 01:07:59;;;;;;;4.47;3.40;;;;;10.80;94092.00;;;;8373159;28;20957;-65
2023/10/21 01:12:02;;;;;;;7.03;3.38;;;;;10.80;94095.00;;;;8366668;28;20201;-66
2023/10/21 01:16:06;;;;;;;5.70;3.35;;;;;11.00;94102.00;;;;8378859;28;20195;-65
2023/10/21 01:20:11;;;;;;;7.03;3.42;;;;;11.00;94099.00;;;;8364310;28;20638;-66
2023/10/21 01:24:16;;;;;;;5.65;3.78;;;;;11.10;94111.00;;;;8374143;28;20235;-67
2023/10/21 01:28:19;;;;;;;6.13;3.70;;;;;11.20;94118.00;;;;8368478;28;20230;-66
2023/10/21 01:32:24;;;;;;;6.85;3.67;;;;;11.30;94120.00;;;;8376030;28;20297;-66
2023/10/21 01:36:27;;;;;;;6.00;3.50;;;;;11.40;94125.00;;;;8369257;28;20202;-65
2023/10/21 01:40:32;;;;;;;8.20;3.67;;;;;11.50;94127.00;;;;8372786;28;20196;-66
2023/10/21 01:44:35;;;;;;;7.90;3.17;;;;;11.70;94135.00;;;;8375928;28;20277;-66
2023/10/21 01:48:38;;;;;;;9.68;3.17;;;;;11.70;94130.00;;;;8366984;28;20437;-66
2023/10/21 01:52:41;;;;;;;7.50;2.90;;;;;11.80;94140.00;;;;8376440;28;20282;-66
2023/10/21 01:56:46;;;;;;;7.05;2.90;;;;;11.80;94126.00;;;;8375140;28;20667;-66
2023/10/21 02:00:49;;;;;;;5.68;2.80;;;;;11.90;94139.00;;;;8372773;28;20198;-66
2023/10/21 02:04:52;;;;;;;2.55;2.35;;;;;11.90;94150.00;;;;8372693;28;21027;-66
2023/10/21 02:08:56;;;;;;;7.88;2.80;;;;;11.90;94154.00;;;;8378038;28;20226;-66
2023/10/21 02:13:01;;;;;;;4.05;2.92;;;;;11.90;94167.00;;;;8372771;28;20191;-66
2023/10/21 02:17:05;;;;;;;8.98;2.70;;;;;12.00;94173.00;;;;8370074;28;20199;-65
2023/10/21 02:21:08;;;;;;;8.20;2.60;;;;;12.00;94171.00;;;;8366002;28;20211;-66
2023/10/21 02:25:15;;;;;;;9.13;2.90;;;;;12.00;94181.00;;;;8377542;28;20345;-66
2023/10/21 02:29:19;;;;;;;3.75;2.58;;;;;12.10;94176.00;;;;8373329;28;20197;-66
2023/10/21 02:33:23;;;;;;;3.72;2.80;;;;;12.10;94186.00;;;;8367920;28;20199;-66
2023/10/21 02:37:26;;;;;;;4.25;2.40;;;;;12.10;94192.00;;;;8372077;28;21367;-66
2023/10/21 02:41:29;;;;;;;5.55;2.33;;;;;12.10;94187.00;;;;8363071;28;20199;-65
2023/10/21 02:45:33;;;;;;;5.78;2.50;;;;;12.00;94203.00;;;;8371552;28;20226;-67
2023/10/21 02:49:36;;;;;;;4.28;2.60;;;;;12.00;94214.00;;;;8375604;28;20657;-66
2023/10/21 02:53:40;;;;;;;3.08;2.58;;;;;12.10;94214.00;;;;8362272;28;20281;-66
2023/10/21 02:57:44;;;;;;;2.60;2.28;;;;;12.10;94220.00;;;;8366230;28;20195;-66
2023/10/21 03:01:49;;;;;;;3.17;2.15;;;;;12.10;94228.00;;;;8396184;22;20322;-66
2023/10/21 03:05:52;;;;;;;3.00;2.50;;;;;12.10;94229.00;;;;8430560;27;20233;-66
2023/10/21 03:09:58;;;;;;;5.47;2.95;;;;;12.10;94227.00;;;;8448460;27;20205;-66
2023/10/21 03:14:01;;;;;;;6.13;2.63;;;;;12.00;94227.00;;;;8452765;27;20211;-66
2023/10/21 03:18:06;;;;;;;10.02;2.75;;;;;12.00;94236.00;;;;8449459;27;20237;-66
2023/10/21 03:22:09;;;;;;;5.88;2.58;;;;;11.90;94239.00;;;;8450684;27;20192;-66
2023/10/21 03:26:12;;;;;;;7.53;2.80;;;;;11.80;94243.00;;;;8447769;27;20331;-66
2023/10/21 03:30:16;;;;;;;7.13;2.53;;;;;11.70;94245.00;;;;8449457;27;20205;-66
2023/10/21 03:34:20;;;;;;;5.13;2.55;;;;;11.50;94244.00;;;;8448605;27;20193;-66
2023/10/21 03:38:24;;;;;;;8.75;2.60;;;;;11.50;94242.00;;;;8443160;27;20281;-67
2023/10/21 03:42:27;;;;;;;2.72;2.50;;;;;11.30;94257.00;;;;8450329;27;20287;-66
2023/10/21 03:46:31;;;;;;;4.68;2.53;;;;;11.20;94265.00;;;;8449679;27;20248;-66
2023/10/21 03:50:35;;;;;;;3.25;2.53;;;;;11.10;94276.00;;;;8457858;27;20660;-66
2023/10/21 03:54:39;;;;;;;7.03;2.70;;;;;11.10;94270.00;;;;8462276;27;20263;-66
2023/10/21 03:58:42;;;;;;;5.80;3.08;;;;;11.00;94275.00;;;;8447796;27;20284;-66
2023/10/21 04:02:46;;;;;;;3.15;2.55;;;;;10.90;94280.00;;;;8435028;27;20245;-67
2023/10/21 04:06:50;;;;;;;3.70;2.50;;;;;10.80;94289.00;;;;8424290;28;20223;-67
2023/10/21 04:10:54;;;;;;;11.43;2.80;;;;;10.80;94296.00;;;;8429274;28;20650;-67
2023/10/21 04:14:57;;;;;;;2.58;2.17;;;;;10.60;94312.00;;;;8439362;28;20203;-67
2023/10/21 04:19:01;;;;;;;2.88;2.15;;;;;10.50;94318.00;;;;8438686;28;20268;-67
2023/10/21 04:23:05;;;;;;;2.88;2.30;;;;;10.50;94320.00;;;;8445121;28;20230;-67
2023/10/21 04:27:09;;;;;;;4.25;2.90;;;;;10.40;94335.00;;;;8447561;28;20225;-67
2023/10/21 04:31:12;;;;;;;2.40;2.20;;;;;10.30;94339.00;;;;8445909;28;20248;-67
2023/10/21 04:35:15;;;;;;;2.40;2.20;;;;;10.10;94359.00;;;;8441994;28;20902;-67
2023/10/21 04:39:20;;;;;;;2.85;2.35;;;;;9.90;94350.00;;;;8439842;28;20566;-67
2023/10/21 04:43:23;;;;;;;4.13;2.55;;;;;9.90;94355.00;;;;8436429;28;20668;-67
2023/10/21 04:47:27;;;;;;;6.15;3.20;;;;;9.90;94363.00;;;;8440370;28;20914;-66
2023/10/21 04:51:30;;;;;;;3.75;2.30;;;;;9.90;94364.00;;;;8437621;28;20631;-67
2023/10/21 04:55:34;;;;;;;6.77;2.43;;;;;9.90;94364.00;;;;8441597;28;20203;-66
2023/10/21 04:59:38;;;;;;;2.50;1.90;;;;;10.00;94374.00;;;;8442385;28;20282;-66
2023/10/21 05:03:41;;;;;;;2.38;2.17;;;;;10.10;94388.00;;;;8439756;28;20226;-64
2023/10/21 05:07:44;;;;;;;2.33;2.13;;;;;10.20;94399.00;;;;8443906;28;20224;-68
2023/10/21 05:11:49;;;;;;;3.53;2.28;;;;;10.30;94401.00;;;;8434589;28;20190;-68
2023/10/21 05:15:52;;;;;;;4.77;2.47;;;;;10.50;94414.00;;;;8437938;28;20653;-65
2023/10/21 05:19:55;;;;;;;3.28;2.40;;;;;10.60;94415.00;;;;8448058;28;20195;-69
2023/10/21 05:23:58;;;;;;;4.10;1.80;;;;;10.70;94426.00;;;;8443749;28;20199;-66
2023/10/21 05:28:03;;;;;;;5.10;2.30;;;;;10.80;94435.00;;;;8444966;28;20609;-67
2023/10/21 05:32:07;;;;;;;2.90;1.88;;;;;11.00;94457.00;;;;8438227;28;20293;-67
2023/10/21 05:36:10;;;;;;;2.03;1.80;;;;;11.10;94461.00;;;;8443149;28;21634;-67
2023/10/21 05:40:13;;;;;;;1.83;1.73;;;;;11.20;94462.00;;;;8439868;28;20852;-67
2023/10/21 05:44:18;;;;;;;2.42;1.48;;;;;11.40;94476.00;;;;8442164;28;20644;-66
2023/10/21 05:48:35;;;;;;;1.45;1.45;;;;;11.60;94485.00;;;;8446990;28;20594;-66
2023/10/21 05:52:38;;;;;;;4.28;2.60;;;;;11.70;94490.00;;;;8439156;28;20194;-66
2023/10/21 05:56:41;;;;;;;2.05;1.50;;;;;11.90;94499.00;;;;8432274;28;20199;-67
2023/10/21 06:00:46;;;;;;;2.90;2.70;;;;;12.00;94513.00;;;;8442546;28;20318;-66
2023/10/21 06:04:50;;;;;;;3.38;2.97;;;;;12.20;94517.00;;;;8434241;28;20649;-66
2023/10/21 06:08:53;;;;;;;2.20;2.10;;;;;12.30;94530.00;;;;8445676;28;20748;-66
2023/10/21 06:12:56;;;;;;;1.80;1.50;;;;;12.40;94544.00;;;;8437951;28;20229;-65
2023/10/21 06:17:01;;;;;;;1.38;1.30;;;;;12.50;94548.00;;;;8428003;28;20208;-65
2023/10/21 06:21:05;;;;;;;2.40;2.30;;;;;12.60;94557.00;;;;8427559;28;20211;-66
2023/10/21 06:25:10;;;;;;;2.65;2.10;;;;;12.70;94559.00;;;;8436054;28;20318;-66
2023/10/21 06:29:15;;;;;;;7.68;4.18;;;;;12.80;94566.00;;;;8434399;28;20293;-66
2023/10/21 06:33:20;;;;;;;3.45;2.90;;;;;12.90;94581.00;;;;8431805;28;20211;-67
2023/10/21 06:37:23;;;;;;;3.92;1.85;;;;;13.00;94580.00;;;;8434947;28;20208;-67
2023/10/21 06:41:26;;;;;;;2.22;1.77;;;;;13.00;94591.00;;;;8434549;28;20197;-66
2023/10/21 06:45:32;;;;;;;1.90;1.73;;;;;13.10;94605.00;;;;8439342;28;20674;-66
2023/10/21 06:49:37;;;;;;;3.33;1.77;;;;;13.20;94609.00;;;;8428197;28;20324;-66
2023/10/21 06:53:40;;;;;;;1.98;1.88;;;;;13.40;94622.00;;;;8443851;28;20198;-67
2023/10/21 06:57:43;;;;;;;2.60;1.88;;;;;13.60;94623.00;;;;8436364;28;20198;-66
2023/10/21 07:01:46;;;;;;;2.72;1.80;;;;;13.80;94634.00;;;;8439914;28;20227;-66
2023/10/21 07:05:51;;;;;;;3.78;1.80;;;;;13.90;94639.00;;;;8438123;28;20237;-67
2023/10/21 07:09:54;;;;;;;3.53;2.40;;;;;14.10;94645.00;;;;8442074;28;20317;-65
2023/10/21 07:13:58;;;;;;;3.83;2.00;;;;;14.20;94657.00;;;;8440142;28;20285;-65
2023/10/21 07:18:01;;;;;;;3.47;2.22;;;;;14.40;94664.00;;;;8430716;28;21833;-65
2023/10/21 07:22:06;;;;;;;2.58;1.77;;;;;14.60;94671.00;;;;8438417;28;20206;-65
2023/10/21 07:26:09;;;;;;;2.17;1.88;;;;;14.70;94684.00;;;;8434882;28;20647;-65
2023/10/21 07:30:13;;;;;;;2.22;2.03;;;;;14.90;94682.00;;;;8443041;28;20740;-64
2023/10/21 07:34:16;;;;;;;2.20;1.92;;;;;14.90;94690.00;;;;8436607;28;20199;-64
2023/10/21 07:38:21;;;;;;;1.90;1.80;;;;;15.00;94692.00;;;;8441649;28;20199;-65
2023/10/21 07:42:25;;;;;;;3.03;2.67;;;;;15.00;94701.00;;;;8434691;28;20195;-63
2023/10/21 07:46:28;;;;;;;2.85;2.00;;;;;14.90;94712.00;;;;8436534;28;20195;-64
2023/10/21 07:50:31;;;;;;;1.88;1.77;;;;;15.00;94721.00;;;;8438479;28;20622;-64
2023/10/21 07:54:37;;;;;;;2.35;2.13;;;;;15.00;94728.00;;;;8441331;28;20282;-66
2023/10/21 07:58:42;;;;;;;2.20;2.00;;;;;15.10;94744.00;;;;8442577;28;20879;-65
2023/10/21 08:02:45;;;;;;;2.63;1.83;;;;;15.20;94741.00;;;;8435930;28;20230;-65
2023/10/21 08:06:48;;;;;;;2.60;2.22;;;;;15.30;94747.00;;;;8434491;28;20202;-64
2023/10/21 08:10:53;;;;;;;2.22;2.03;;;;;15.40;94750.00;;;;8442394;28;20261;-65
2023/10/21 08:14:56;;;;;;;3.47;2.08;;;;;15.60;94756.00;;;;8432853;28;20310;-65
2023/10/21 08:19:00;;;;;;;2.20;2.00;;;;;15.80;94754.00;;;;8442350;28;20195;-64
2023/10/21 08:23:04;;;;;;;2.65;1.92;;;;;16.10;94761.00;;;;8436798;28;20190;-64
2023/10/21 08:27:10;;;;;;;3.55;2.00;;;;;16.30;94767.00;;;;8439615;28;20295;-65
2023/10/21 08:31:13;;;;;;;2.90;1.75;;;;;16.50;94759.00;;;;8436929;28;20218;-65
2023/10/21 08:35:16;;;;;;;2.17;1.20;;;;;16.60;94762.00;;;;8435797;28;20199;-64
2023/10/21 08:39:20;;;;;;;1.60;1.50;;;;;16.70;94767.00;;;;8430847;28;20292;-64
2023/10/21 08:43:25;;;;;;;2.03;1.20;;;;;16.70;94782.00;;;;8436888;28;20187;-65
2023/10/21 08:47:29;;;;;;;1.50;1.40;;;;;16.70;94782.00;;;;8441211;28;20241;-66
2023/10/21 08:51:34;;;;;;;1.30;1.30;;;;;16.80;94795.00;;;;8435253;28;21054;-66
2023/10/21 08:55:39;;;;;;;1.55;1.27;;;;;17.00;94801.00;;;;8439786;28;20259;-66
2023/10/21 08:59:43;;;;;;;1.48;1.38;;;;;17.20;94809.00;;;;8432345;28;20659;-66
2023/10/21 09:03:48;;;;;;;1.83;1.70;;;;;17.40;94809.00;;;;8438470;28;20237;-65
2023/10/21 09:07:51;;;;;;;1.50;1.40;;;;;17.60;94807.00;;;;8444322;28;20990;-65
2023/10/21 09:12:05;;;;;;;1.38;1.30;;;;;17.50;94814.00;;;;8442063;28;20197;-66
2023/10/21 09:16:21;;;;;;;1.73;1.50;;;;;17.50;94814.00;;;;8436563;28;20860;-66
2023/10/21 09:20:25;;;;;;;1.90;1.80;;;;;17.90;94823.00;;;;8438677;28;20199;-68
2023/10/21 09:24:28;;;;;;;2.80;2.03;;;;;18.20;94824.00;;;;8433380;28;20277;-67
2023/10/21 09:28:31;;;;;;;2.47;1.88;;;;;18.30;94826.00;;;;8446033;28;20218;-67
2023/10/21 09:32:36;;;;;;;2.40;1.60;;;;;18.60;94829.00;;;;8438755;28;20298;-68
2023/10/21 09:36:42;;;;;;;1.60;1.50;;;;;19.00;94839.00;;;;8446071;28;20201;-67
2023/10/21 09:40:46;;;;;;;1.48;1.30;;;;;19.30;94840.00;;;;8443502;28;20206;-67
2023/10/21 09:44:50;;;;;;;1.30;1.20;;;;;19.30;94843.00;;;;8438412;28;20230;-67
2023/10/21 09:48:57;;;;;;;1.60;1.30;;;;;19.20;94864.00;;;;8438629;28;20313;-67
2023/10/21 09:53:07;;;;;;;1.38;1.27;;;;;19.20;94872.00;;;;8438171;28;21033;-67
2023/10/21 09:57:11;;;;;;;1.63;1.05;;;;;19.10;94863.00;;;;8433945;28;20203;-67
2023/10/21 10:01:18;;;;;;;1.50;1.40;;;;;19.20;94870.00;;;;8438974;28;20263;-67
2023/10/21 10:05:23;;;;;;;4.07;1.30;;;;;19.30;94864.00;;;;8441870;28;20210;-67
2023/10/21 10:09:28;;;;;;;1.48;1.42;;;;;19.30;94876.00;;;;8440157;28;20254;-66
2023/10/21 10:13:34;;;;;;;2.28;1.88;;;;;19.30;94886.00;;;;8442616;28;20240;-67
2023/10/21 10:17:50;;;;;;;5.70;2.00;;;;;19.30;94887.00;;;;8439990;28;20205;-67
2023/10/21 10:21:54;;;;;;;2.55;1.85;;;;;19.40;94883.00;;;;8438209;28;20655;-66
2023/10/21 10:25:58;;;;;;;2.30;2.00;;;;;19.40;94879.00;;;;8443581;28;20203;-67
2023/10/21 10:30:07;;;;;;;1.52;1.42;;;;;19.60;94891.00;;;;8442654;28;20258;-67
2023/10/21 10:34:10;;;;;;;2.60;1.70;;;;;19.70;94898.00;;;;8444172;28;20237;-67
2023/10/21 10:38:20;;;;;;;1.10;1.10;;;;;19.80;94898.00;;;;8440939;28;20306;-67
2023/10/21 10:42:28;;;;;;;1.23;1.23;;;;;20.00;94888.00;;;;8441918;28;20199;-67
2023/10/21 10:46:36;;;;;;;1.33;1.23;;;;;20.20;94898.00;;;;8443502;28;20191;-67
2023/10/21 10:50:39;;;;;;;1.45;1.33;;;;;20.30;94893.00;;;;8442161;28;20919;-66
2023/10/21 10:54:43;;;;;;;2.30;1.02;;;;;20.30;94889.00;;;;8444073;28;20282;-67
2023/10/21 10:58:47;;;;;;;2.50;1.10;;;;;20.40;94893.00;;;;8443738;28;21295;-66
2023/10/21 11:02:50;;;;;;;1.20;1.20;;;;;20.30;94886.00;;;;8440041;28;20230;-66
2023/10/21 11:06:56;;;;;;;3.03;1.05;;;;;20.50;94885.00;;;;8438201;28;20243;-66
2023/10/21 11:11:04;;;;;;;1.02;1.02;;;;;20.40;94880.00;;;;8436752;28;20233;-66
2023/10/21 11:15:12;;;;;;;7.38;3.80;;;;;20.00;94889.00;;;;8434908;28;20237;-66
2023/10/21 11:19:15;;;;;;;2.35;1.55;;;;;19.90;94900.00;;;;8429193;28;20244;-66
2023/10/21 11:23:20;;;;;;;1.55;1.15;;;;;20.60;94893.00;;;;8438625;28;20199;-66
2023/10/21 11:27:24;;;;;;;2.80;1.30;;;;;20.90;94897.00;;;;8430586;28;20278;-66
2023/10/21 11:31:29;;;;;;;1.20;1.10;;;;;20.90;94905.00;;;;8435672;28;20234;-66
2023/10/21 11:35:32;;;;;;;0.80;0.80;;;;;20.80;94904.00;;;;8438091;28;20203;-66
2023/10/21 11:39:36;;;;;;;1.70;1.00;;;;;20.80;94912.00;;;;8437335;28;20205;-66
2023/10/21 11:43:44;;;;;;;0.88;0.88;;;;;20.80;94917.00;;;;8437397;28;20713;-66
2023/10/21 11:47:53;;;;;;;2.50;1.15;;;;;20.70;94923.00;;;;8441830;28;20206;-67
2023/10/21 11:52:00;;;;;;;1.00;1.00;;;;;20.70;94926.00;;;;8433248;28;20249;-66
2023/10/21 12:13:53;;;;;;;1.25;0.90;;;;;20.80;94936.00;;;;8429341;28;20202;-66
2023/10/21 12:18:22;;;;;;;0.95;0.90;;;;;20.60;94931.00;;;;8436542;28;20206;-67
2023/10/21 12:27:33;;;;;;;1.75;0.82;;;;;20.60;94932.00;;;;8380695;28;20199;-67
2023/10/21 12:36:02;;;;;;;0.80;0.80;;;;;20.80;94929.00;;;;8442123;28;20237;-67
2023/10/21 12:44:26;;;;;;;1.35;0.80;;;;;21.30;94935.00;;;;8448903;28;20644;-67
2023/10/21 12:48:29;;;;;;;2.05;0.90;;;;;21.60;94945.00;;;;8451848;28;20563;-67
2023/10/21 12:52:35;;;;;;;1.10;0.80;;;;;21.60;94941.00;;;;8443705;28;20253;-67
2023/10/21 12:56:39;;;;;;;0.90;0.90;;;;;21.70;94927.00;;;;8445385;28;20224;-68
2023/10/21 13:00:43;;;;;;;2.13;1.00;;;;;21.90;94927.00;;;;8447067;28;20274;-67
2023/10/21 13:04:47;;;;;;;0.88;0.88;;;;;22.00;94926.00;;;;8448917;28;20235;-67
2023/10/21 13:08:51;;;;;;;0.75;0.75;;;;;22.00;94924.00;;;;8446964;28;20190;-67
2023/10/21 13:12:55;;;;;;;0.80;0.80;;;;;22.10;94922.00;;;;8444551;28;20233;-67
2023/10/21 13:16:58;;;;;;;0.77;0.77;;;;;22.10;94931.00;;;;8449408;28;20213;-68
2023/10/21 13:21:01;;;;;;;1.20;0.70;;;;;22.10;94927.00;;;;8445117;28;20232;-67
2023/10/21 13:25:08;;;;;;;0.80;0.80;;;;;21.90;94922.00;;;;8448161;28;20191;-68
2023/10/21 13:29:20;;;;;;;3.17;0.90;;;;;21.80;94932.00;;;;8445386;28;20945;-67
2023/10/21 13:33:24;;;;;;;0.80;0.80;;;;;21.80;94935.00;;;;8449997;28;21621;-67
2023/10/21 13:37:27;;;;;;;0.80;0.80;;;;;21.80;94937.00;;;;8446847;28;20230;-67
2023/10/21 13:41:31;;;;;;;1.30;0.85;;;;;21.80;94946.00;;;;8444529;28;20726;-67
2023/10/21 13:45:34;;;;;;;0.80;0.80;;;;;21.70;94955.00;;;;8441770;28;20282;-67
2023/10/21 13:49:41;;;;;;;2.35;0.70;;;;;21.70;94946.00;;;;8447811;28;20230;-67
2023/10/21 13:53:44;;;;;;;0.60;0.60;;;;;21.60;94940.00;;;;8450033;28;20282;-67
2023/10/21 13:57:49;;;;;;;0.77;0.77;;;;;21.50;94938.00;;;;8441904;28;20199;-68
2023/10/21 14:01:52;;;;;;;0.70;0.70;;;;;21.40;94959.00;;;;8448908;28;20253;-67
2023/10/21 14:05:58;;;;;;;0.68;0.68;;;;;21.40;94956.00;;;;8448603;28;20198;-67
2023/10/21 14:10:07;;;;;;;0.90;0.90;;;;;21.50;94950.00;;;;8440057;28;20639;-67
2023/10/21 14:14:12;;;;;;;0.70;0.70;;;;;21.50;94953.00;;;;8443093;28;20242;-66
2023/10/21 14:18:17;;;;;;;1.35;0.82;;;;;21.50;94957.00;;;;8432402;28;20197;-67
2023/10/21 14:22:20;;;;;;;0.80;0.80;;;;;21.30;94969.00;;;;8433425;28;20336;-66
2023/10/21 14:26:24;;;;;;;1.00;0.70;;;;;21.00;94977.00;;;;8428175;28;20209;-67
2023/10/21 14:30:28;;;;;;;0.80;0.80;;;;;20.80;94977.00;;;;8431410;28;20229;-67
2023/10/21 14:34:34;;;;;;;0.60;0.60;;;;;20.60;94979.00;;;;8432922;28;20202;-66
2023/10/21 14:38:37;;;;;;;0.65;0.65;;;;;20.50;94989.00;;;;8442076;28;20195;-65
2023/10/21 14:42:41;;;;;;;0.70;0.70;;;;;20.30;94992.00;;;;8432265;28;20219;-65
2023/10/21 14:46:48;;;;;;;1.08;0.80;;;;;20.10;94982.00;;;;8440488;28;20637;-66
2023/10/21 14:50:51;;;;;;;1.52;0.90;;;;;19.80;94982.00;;;;8433763;28;20261;-66
2023/10/21 14:54:55;;;;;;;1.08;1.02;;;;;19.60;94986.00;;;;8435059;28;20541;-68
2023/10/21 14:58:59;;;;;;;1.08;0.70;;;;;19.30;94986.00;;;;8429503;28;20210;-66
2023/10/21 15:03:06;;;;;;;0.80;0.80;;;;;19.10;94976.00;;;;8440110;28;20249;-67
2023/10/21 15:07:10;;;;;;;0.80;0.80;;;;;18.90;94993.00;;;;8437619;28;20216;-67
2023/10/21 15:11:14;;;;;;;2.38;0.90;;;;;18.70;94996.00;;;;8439492;28;20226;-67
2023/10/21 15:15:18;;;;;;;0.80;0.80;;;;;18.50;94993.00;;;;8441591;28;20203;-66
2023/10/21 15:19:24;;;;;;;0.80;0.80;;;;;18.30;94999.00;;;;8431224;28;20210;-67
2023/10/21 15:23:28;;;;;;;0.90;0.90;;;;;18.10;94997.00;;;;8441040;28;20366;-68
2023/10/21 15:27:31;;;;;;;0.90;0.90;;;;;17.80;95004.00;;;;8436029;28;20201;-66
2023/10/21 15:31:34;;;;;;;1.50;1.15;;;;;17.60;94997.00;;;;8439534;28;20728;-65
2023/10/21 15:35:41;;;;;;;0.93;0.90;;;;;17.30;94996.00;;;;8432273;28;20818;-66
2023/10/21 15:39:46;;;;;;;3.05;1.50;;;;;17.00;95000.00;;;;8434772;28;20195;-66
2023/10/21 15:43:50;;;;;;;1.80;1.70;;;;;16.60;95004.00;;;;8432079;28;20673;-65
2023/10/21 15:47:53;;;;;;;1.70;1.60;;;;;16.40;95019.00;;;;8438487;28;20182;-65
2023/10/21 15:51:58;;;;;;;2.92;2.10;;;;;16.40;95023.00;;;;8438096;28;20222;-65
2023/10/21 15:56:01;;;;;;;2.10;2.00;;;;;16.30;95016.00;;;;8432547;28;20205;-65
2023/10/21 16:00:11;;;;;;;3.05;2.00;;;;;16.20;95016.00;;;;8432579;28;20292;-66
2023/10/21 16:04:15;;;;;;;1.92;1.30;;;;;16.20;95017.00;;;;8426589;28;20371;-65
2023/10/21 16:08:20;;;;;;;1.33;1.33;;;;;16.30;95024.00;;;;8431158;28;20209;-65
2023/10/21 16:12:24;;;;;;;1.30;1.30;;;;;16.30;95031.00;;;;8427982;28;20223;-65
2023/10/21 16:16:29;;;;;;;1.90;1.50;;;;;16.40;95044.00;;;;8434417;28;20390;-65
2023/10/21 16:20:35;;;;;;;4.25;1.60;;;;;16.40;95049.00;;;;8435941;28;20324;-65
2023/10/21 16:24:39;;;;;;;1.95;1.50;;;;;16.40;95055.00;;;;8435115;28;20798;-65
2023/10/21 16:28:44;;;;;;;3.78;1.90;;;;;16.50;95057.00;;;;8426378;28;20285;-65
2023/10/21 16:32:47;;;;;;;4.45;1.70;;;;;16.50;95068.00;;;;8425716;28;20222;-65
2023/10/21 16:36:50;;;;;;;3.80;1.83;;;;;16.50;95071.00;;;;8429403;28;20251;-65
2023/10/21 16:40:55;;;;;;;3.95;2.20;;;;;16.50;95062.00;;;;8432688;28;20666;-65
2023/10/21 16:44:59;;;;;;;1.63;1.50;;;;;16.60;95075.00;;;;8430272;28;20644;-66
2023/10/21 16:49:02;;;;;;;2.70;1.70;;;;;16.60;95086.00;;;;8427079;28;20206;-64
2023/10/21 16:53:05;;;;;;;1.45;1.35;;;;;16.60;95102.00;;;;8429686;28;20235;-65
2023/10/21 16:57:10;;;;;;;1.60;1.50;;;;;16.60;95109.00;;;;8434105;28;20203;-65
2023/10/21 17:01:13;;;;;;;1.52;1.42;;;;;16.60;95116.00;;;;8430674;28;20198;-66
2023/10/21 17:05:17;;;;;;;1.90;1.42;;;;;16.60;95124.00;;;;8431968;28;20226;-65
2023/10/21 17:09:20;;;;;;;1.83;1.73;;;;;16.60;95134.00;;;;8442445;28;20281;-65
2023/10/21 17:13:24;;;;;;;2.10;1.80;;;;;16.50;95133.00;;;;8438174;28;20230;-65
2023/10/21 17:17:27;;;;;;;1.85;1.75;;;;;16.50;95137.00;;;;8438246;28;20191;-65
2023/10/21 17:21:31;;;;;;;2.03;1.92;;;;;16.50;95140.00;;;;8438368;28;20286;-65
2023/10/21 17:25:34;;;;;;;2.33;2.00;;;;;16.50;95157.00;;;;8445810;28;20214;-65
2023/10/21 17:29:38;;;;;;;2.30;2.10;;;;;16.40;95169.00;;;;8448541;28;20203;-65
2023/10/21 17:33:41;;;;;;;1.52;1.42;;;;;16.30;95173.00;;;;8440026;28;20222;-64
2023/10/21 17:37:52;;;;;;;1.60;1.50;;;;;16.30;95180.00;;;;8445214;28;20187;-65
2023/10/21 17:41:56;;;;;;;1.20;1.20;;;;;16.20;95181.00;;;;8443552;28;20372;-65
2023/10/21 17:46:00;;;;;;;1.40;1.30;;;;;16.20;95183.00;;;;8449521;28;20314;-65
2023/10/21 17:50:04;;;;;;;1.48;1.38;;;;;16.10;95194.00;;;;8445385;28;20207;-65
2023/10/21 17:54:13;;;;;;;1.77;1.30;;;;;16.10;95202.00;;;;8447458;28;20337;-65
2023/10/21 17:58:16;;;;;;;2.25;1.27;;;;;16.00;95198.00;;;;8444182;28;20199;-65
2023/10/21 18:02:21;;;;;;;1.40;1.40;;;;;15.90;95209.00;;;;8446120;28;20227;-65
2023/10/21 18:06:24;;;;;;;1.30;1.30;;;;;15.80;95208.00;;;;8447558;28;20770;-64
2023/10/21 18:10:27;;;;;;;1.52;1.45;;;;;15.80;95207.00;;;;8449133;28;20548;-65
2023/10/21 18:14:30;;;;;;;1.15;1.15;;;;;15.70;95206.00;;;;8445305;28;20232;-64
2023/10/21 18:18:35;;;;;;;2.83;1.20;;;;;15.70;95198.00;;;;8449169;28;20245;-65
2023/10/21 18:22:38;;;;;;;1.50;1.20;;;;;15.60;95192.00;;;;8448465;28;20195;-65
2023/10/21 18:26:42;;;;;;;1.00;1.00;;;;;15.50;95198.00;;;;8441502;28;20190;-65
2023/10/21 18:30:47;;;;;;;2.60;1.40;;;;;15.50;95212.00;;;;8445593;28;20203;-65
2023/10/21 18:34:52;;;;;;;1.02;1.00;;;;;15.40;95208.00;;;;8444249;28;20234;-65
2023/10/21 18:38:55;;;;;;;1.02;1.02;;;;;15.40;95208.00;;;;8429165;28;20229;-65
2023/10/21 18:43:00;;;;;;;1.20;1.20;;;;;15.40;95218.00;;;;8442819;28;20191;-65
2023/10/21 18:47:03;;;;;;;3.05;1.10;;;;;15.40;95229.00;;;;8440353;28;20606;-64
2023/10/21 18:51:08;;;;;;;1.45;1.10;;;;;15.40;95233.00;;;;8441322;28;20206;-65
2023/10/21 18:55:11;;;;;;;1.25;1.25;;;;;15.30;95238.00;;;;8437104;28;20286;-64
2023/10/21 18:59:14;;;;;;;1.55;1.45;;;;;15.30;95234.00;;;;8448071;28;20206;-64
2023/10/21 19:03:18;;;;;;;1.23;1.13;;;;;15.30;95231.00;;;;8438727;28;20273;-65
2023/10/21 19:07:22;;;;;;;1.83;1.38;;;;;15.20;95235.00;;;;8441053;28;20660;-64
2023/10/21 19:11:27;;;;;;;1.00;1.00;;;;;15.20;95247.00;;;;8445567;28;20213;-65
2023/10/21 19:15:30;;;;;;;1.30;1.20;;;;;15.20;95245.00;;;;8431277;28;20230;-64
2023/10/21 19:19:34;;;;;;;1.30;1.02;;;;;15.10;95253.00;;;;8438034;28;20207;-65
2023/10/21 19:23:39;;;;;;;3.45;1.20;;;;;15.10;95251.00;;;;8442031;28;20203;-64
2023/10/21 19:27:42;;;;;;;1.75;1.20;;;;;15.00;95234.00;;;;8435950;28;20222;-64
2023/10/21 19:31:46;;;;;;;1.00;1.00;;;;;15.00;95237.00;;;;8446840;28;20218;-65
2023/10/21 19:35:54;;;;;;;1.63;1.13;;;;;15.00;95249.00;;;;8445396;28;20199;-64
2023/10/21 19:39:58;;;;;;;1.63;1.20;;;;;14.90;95250.00;;;;8447272;28;20286;-64
2023/10/21 19:44:02;;;;;;;1.65;1.20;;;;;14.80;95250.00;;;;8444720;28;20267;-64
2023/10/21 19:48:25;;;;;;;1.48;1.02;;;;;14.70;95255.00;;;;8442746;28;20259;-65
2023/10/21 19:52:28;;;;;;;1.88;1.10;;;;;14.50;95255.00;;;;8446623;28;20252;-65
2023/10/21 19:56:33;;;;;;;1.50;1.40;;;;;14.40;95250.00;;;;8442269;28;20290;-65
2023/10/21 20:00:36;;;;;;;1.50;1.40;;;;;14.20;95255.00;;;;8445174;28;20290;-65
2023/10/21 20:04:39;;;;;;;2.42;1.10;;;;;14.00;95258.00;;;;8441373;28;20233;-65
2023/10/21 20:08:42;;;;;;;1.30;1.20;;;;;13.90;95261.00;;;;8444782;28;20234;-65
2023/10/21 20:12:47;;;;;;;1.10;1.10;;;;;13.90;95272.00;;;;8443039;28;20233;-65
2023/10/21 20:16:50;;;;;;;2.88;1.20;;;;;13.90;95281.00;;;;8444201;28;20663;-65
2023/10/21 20:20:53;;;;;;;1.17;1.17;;;;;13.80;95277.00;;;;8444907;28;20191;-64
2023/10/21 20:24:57;;;;;;;1.45;1.33;;;;;13.80;95275.00;;;;8444893;28;20841;-64
2023/10/21 20:29:01;;;;;;;1.15;1.15;;;;;13.70;95282.00;;;;8440848;28;20199;-64
2023/10/21 20:33:04;;;;;;;3.30;1.20;;;;;13.80;95293.00;;;;8437965;28;20241;-65
2023/10/21 20:37:08;;;;;;;1.50;1.40;;;;;13.70;95296.00;;;;8432202;28;20194;-65
2023/10/21 20:41:12;;;;;;;1.73;1.30;;;;;13.70;95289.00;;;;8439466;28;20298;-65
2023/10/21 20:45:19;;;;;;;1.48;1.00;;;;;13.70;95294.00;;;;8435018;28;20202;-65
2023/10/21 20:49:22;;;;;;;2.13;1.30;;;;;13.70;95305.00;;;;8435847;28;20195;-65
2023/10/21 20:53:25;;;;;;;2.28;2.00;;;;;13.80;95310.00;;;;8437385;28;20534;-65
2023/10/21 20:57:29;;;;;;;4.07;1.73;;;;;13.70;95309.00;;;;8442863;28;20215;-65